createdAt,value
2019-01-27T00:01:06.042Z,98647.02
2019-01-27T00:03:35.236Z,98634.78
2019-01-27T00:06:04.366Z,98624.50
2019-01-27T00:08:32.908Z,98623.20
2019-01-27T00:11:01.072Z,98606.25
2019-01-27T00:13:29.092Z,98593.56
2019-01-27T00:15:57.115Z,98589.66
2019-01-27T00:18:25.188Z,98589.66
2019-01-27T00:20:53.221Z,98576.52
2019-01-27T00:23:21.244Z,98572.59
2019-01-27T00:25:49.229Z,98574.52
2019-01-27T00:28:17.342Z,98571.11
2019-01-27T00:30:45.581Z,98563.67
2019-01-27T00:33:13.576Z,98558.15
2019-01-27T00:35:41.658Z,98549.99
2019-01-27T00:38:09.688Z,98540.06
2019-01-27T00:40:37.656Z,98538.76
2019-01-27T00:43:06.449Z,98538.27
2019-01-27T00:45:35.646Z,98527.03
2019-01-27T00:48:03.747Z,98527.83
2019-01-27T00:50:31.778Z,98527.33
2019-01-27T00:52:59.792Z,98513.50
2019-01-27T00:55:28.099Z,98508.62
2019-01-27T00:57:56.080Z,98490.67
2019-01-27T01:00:25.325Z,98486.77
2019-01-27T01:02:53.523Z,98482.35
2019-01-27T01:05:22.051Z,98471.92
2019-01-27T01:07:50.435Z,98473.73
2019-01-27T01:10:19.306Z,98464.30
2019-01-27T01:12:47.408Z,98463.11
2019-01-27T01:15:16.404Z,98455.98
2019-01-27T01:17:44.690Z,98463.30
2019-01-27T01:20:18.904Z,98459.09
2019-01-27T01:22:47.889Z,98452.23
2019-01-27T01:25:21.244Z,98448.16
2019-01-27T01:27:49.804Z,98445.72
2019-01-27T01:30:21.485Z,98450.12
2019-01-27T01:32:49.577Z,98455.04
2019-01-27T01:35:17.602Z,98454.54
2019-01-27T01:37:45.787Z,98450.62
2019-01-27T01:40:16.525Z,98447.22
2019-01-27T01:42:45.037Z,98439.03
2019-01-27T01:45:28.234Z,98428.11
2019-01-27T01:47:56.213Z,98418.18
2019-01-27T01:50:24.224Z,98407.92
2019-01-27T01:52:52.263Z,98391.48
2019-01-27T01:55:20.249Z,98395.89
2019-01-27T01:57:48.448Z,98391.98
2019-01-27T02:00:20.093Z,98393.72
2019-01-27T02:02:48.241Z,98382.19
2019-01-27T02:05:17.839Z,98382.29
2019-01-27T02:07:45.857Z,98373.97
2019-01-27T02:10:17.230Z,98366.15
2019-01-27T02:18:47.617Z,98356.63
2019-01-27T02:21:15.711Z,98354.42
2019-01-27T02:23:43.780Z,98345.59
2019-01-27T02:26:11.841Z,98335.77
2019-01-27T02:28:39.866Z,98333.59
2019-01-27T02:31:08.083Z,98319.86
2019-01-27T02:33:36.141Z,98313.47
2019-01-27T02:36:05.071Z,98311.47
2019-01-27T02:38:33.083Z,98307.86
2019-01-27T02:41:01.147Z,98309.16
2019-01-27T02:43:29.881Z,98293.95
2019-01-27T02:45:58.115Z,98294.75
2019-01-27T02:48:26.106Z,98292.95
2019-01-27T02:50:54.100Z,98292.74
2019-01-27T02:53:22.166Z,98288.83
2019-01-27T02:55:50.187Z,98279.20
2019-01-27T02:58:18.199Z,98272.18
2019-01-27T03:00:46.240Z,98267.39
2019-01-27T03:03:14.850Z,98260.88
2019-01-27T03:06:04.033Z,98263.78
2019-01-27T03:08:38.457Z,98248.64
2019-01-27T03:11:06.472Z,98248.84
2019-01-27T03:13:34.506Z,98245.40
2019-01-27T03:16:02.510Z,98226.34
2019-01-27T03:18:30.915Z,98232.69
2019-01-27T03:20:59.007Z,98226.17
2019-01-27T03:23:27.036Z,98223.86
2019-01-27T03:25:55.065Z,98214.23
2019-01-27T03:28:23.337Z,98211.92
2019-01-27T03:30:51.437Z,98200.69
2019-01-27T03:33:19.407Z,98192.87
2019-01-27T03:35:47.414Z,98190.86
2019-01-27T03:38:15.416Z,98181.22
2019-01-27T03:40:43.488Z,98180.22
2019-01-27T03:43:11.510Z,98169.48
2019-01-27T03:45:39.907Z,98163.27
2019-01-27T03:48:07.928Z,98146.52
2019-01-27T03:50:36.079Z,98138.99
2019-01-27T03:53:04.853Z,98130.66
2019-01-27T03:55:32.892Z,98130.99
2019-01-27T03:58:00.926Z,98121.95
2019-01-27T04:00:28.984Z,98114.22
2019-01-27T04:02:57.026Z,98105.21
2019-01-27T04:05:26.222Z,98105.51
2019-01-27T04:07:55.458Z,98109.00
2019-01-27T04:10:23.517Z,98113.22
2019-01-27T04:12:51.567Z,98111.44
2019-01-27T04:15:19.556Z,98107.61
2019-01-27T04:17:47.596Z,98098.78
2019-01-27T04:20:17.823Z,98091.55
2019-01-27T04:22:45.875Z,98075.30
2019-01-27T04:25:16.286Z,98083.13
2019-01-27T04:27:44.535Z,98078.12
2019-01-27T04:30:41.648Z,98081.23
2019-01-27T04:33:09.752Z,98052.74
2019-01-27T04:35:37.887Z,98051.82
2019-01-27T04:38:09.045Z,98045.59
2019-01-27T04:40:37.459Z,98032.84
2019-01-27T04:43:05.520Z,98031.87
2019-01-27T04:45:35.572Z,98029.73
2019-01-27T04:48:05.738Z,98020.72
2019-01-27T04:50:34.048Z,98029.55
2019-01-27T04:53:03.229Z,98024.63
2019-01-27T04:55:31.281Z,98017.61
2019-01-27T04:57:59.570Z,98021.42
2019-01-27T05:00:27.701Z,98015.48
2019-01-27T05:03:22.717Z,98011.78
2019-01-27T05:05:50.727Z,98017.00
2019-01-27T05:08:19.444Z,98006.75
2019-01-27T05:10:47.726Z,98006.58
2019-01-27T05:13:15.991Z,98008.57
2019-01-27T05:15:44.028Z,98006.17
2019-01-27T05:18:12.031Z,98007.47
2019-01-27T05:20:40.293Z,98003.27
2019-01-27T05:23:08.338Z,97998.27
2019-01-27T05:25:36.335Z,97994.95
2019-01-27T05:28:04.342Z,97984.61
2019-01-27T05:30:32.334Z,97982.50
2019-01-27T05:33:00.341Z,97983.30
2019-01-27T05:35:28.339Z,97976.48
2019-01-27T05:37:56.377Z,97964.45
2019-01-27T05:40:24.367Z,97969.97
2019-01-27T05:42:52.396Z,97956.63
2019-01-27T05:45:20.418Z,97953.02
2019-01-27T05:47:48.455Z,97960.55
2019-01-27T05:50:16.698Z,97952.72
2019-01-27T05:52:44.752Z,97949.91
2019-01-27T05:55:13.793Z,97941.90
2019-01-27T05:57:41.998Z,97940.67
2019-01-27T06:00:18.039Z,97938.15
2019-01-27T06:02:46.064Z,97935.36
2019-01-27T06:05:14.066Z,97929.72
2019-01-27T06:07:42.378Z,97924.29
2019-01-27T06:10:11.313Z,97919.87
2019-01-27T06:12:39.449Z,97921.08
2019-01-27T06:15:09.769Z,97924.48
2019-01-27T06:17:38.144Z,97936.01
2019-01-27T06:20:08.723Z,97928.59
2019-01-27T06:22:36.723Z,97931.20
2019-01-27T06:25:07.677Z,97922.36
2019-01-27T06:27:35.956Z,97925.77
2019-01-27T06:30:07.834Z,97914.83
2019-01-27T06:32:58.034Z,97917.73
2019-01-27T06:35:26.092Z,97916.42
2019-01-27T06:37:54.126Z,97912.22
2019-01-27T06:40:22.134Z,97904.79
2019-01-27T06:42:50.153Z,97902.98
2019-01-27T06:45:18.166Z,97896.75
2019-01-27T06:47:47.598Z,97893.12
2019-01-27T06:50:15.638Z,97886.02
2019-01-27T06:52:43.640Z,97894.35
2019-01-27T06:55:13.485Z,97887.93
2019-01-27T06:57:41.499Z,97884.13
2019-01-27T07:00:25.471Z,97889.69
2019-01-27T07:02:59.927Z,97874.72
2019-01-27T07:05:44.599Z,97871.53
2019-01-27T07:08:25.428Z,97870.62
2019-01-27T07:11:12.703Z,97869.83
2019-01-27T07:14:02.906Z,97860.03
2019-01-27T07:16:51.059Z,97854.02
2019-01-27T07:19:41.751Z,97860.53
2019-01-27T07:22:31.947Z,97856.92
2019-01-27T07:25:18.436Z,97854.09
2019-01-27T07:28:08.884Z,97853.88
2019-01-27T07:30:56.987Z,97854.79
2019-01-27T07:33:53.715Z,97849.86
2019-01-27T07:36:34.013Z,97841.24
2019-01-27T07:39:27.734Z,97835.81
2019-01-27T07:42:16.651Z,97828.28
2019-01-27T07:44:53.872Z,97824.66
2019-01-27T07:47:47.084Z,97818.13
2019-01-27T07:50:35.492Z,97811.72
2019-01-27T07:53:17.300Z,97803.67
2019-01-27T07:55:58.457Z,97793.82
2019-01-27T07:58:49.159Z,97795.74
2019-01-27T08:01:36.902Z,97791.90
2019-01-27T08:04:39.890Z,97774.22
2019-01-27T08:07:26.286Z,97778.13
2019-01-27T08:10:13.973Z,97777.22
2019-01-27T08:13:08.842Z,97776.79
2019-01-27T08:16:14.584Z,97779.98
2019-01-27T08:19:00.768Z,97783.48
2019-01-27T08:21:39.734Z,97783.66
2019-01-27T08:24:26.147Z,97784.24
2019-01-27T08:27:13.560Z,97781.70
2019-01-27T08:30:07.862Z,97783.11
2019-01-27T08:32:55.534Z,97777.55
2019-01-27T08:35:39.745Z,97772.11
2019-01-27T08:38:26.138Z,97770.59
2019-01-27T08:41:19.887Z,97762.03
2019-01-27T08:44:16.313Z,97769.02
2019-01-27T08:46:51.997Z,97765.78
2019-01-27T08:49:20.023Z,97767.77
2019-01-27T08:51:48.064Z,97757.16
2019-01-27T08:54:16.821Z,97759.36
2019-01-27T08:56:45.422Z,97754.78
2019-01-27T08:59:13.887Z,97756.54
2019-01-27T09:02:05.639Z,97758.77
2019-01-27T09:04:51.417Z,97749.12
2019-01-27T09:07:39.643Z,97743.95
2019-01-27T09:10:39.249Z,97745.84
2019-01-27T09:13:26.275Z,97735.90
2019-01-27T09:16:21.827Z,97736.92
2019-01-27T09:19:09.555Z,97742.37
2019-01-27T09:22:16.998Z,97735.42
2019-01-27T09:24:58.768Z,97725.70
2019-01-27T09:27:37.032Z,97732.81
2019-01-27T09:30:31.196Z,97726.62
2019-01-27T09:33:07.699Z,97735.33
2019-01-27T09:36:11.225Z,97734.02
2019-01-27T09:39:02.354Z,97726.47
2019-01-27T09:41:40.974Z,97729.24
2019-01-27T09:44:32.661Z,97731.41
2019-01-27T09:47:19.209Z,97735.20
2019-01-27T09:49:56.970Z,97733.03
2019-01-27T09:52:52.551Z,97738.98
2019-01-27T09:55:41.125Z,97715.11
2019-01-27T09:58:21.351Z,97729.98
2019-01-27T10:01:05.138Z,97727.27
2019-01-27T10:03:54.838Z,97726.83
2019-01-27T10:06:45.782Z,97718.64
2019-01-27T10:09:34.644Z,97710.74
2019-01-27T10:12:12.606Z,97706.85
2019-01-27T10:15:07.131Z,97707.31
2019-01-27T10:17:59.224Z,97708.67
2019-01-27T10:20:42.325Z,97706.98
2019-01-27T10:23:38.857Z,97702.44
2019-01-27T10:26:22.204Z,97688.83
2019-01-27T10:29:11.218Z,97684.16
2019-01-27T10:31:58.839Z,97681.12
2019-01-27T10:34:46.896Z,97674.40
2019-01-27T10:37:39.419Z,97683.08
2019-01-27T10:40:20.687Z,97679.51
2019-01-27T10:43:13.898Z,97675.69
2019-01-27T10:46:11.197Z,97674.77
2019-01-27T10:49:05.895Z,97664.64
2019-01-27T10:51:53.564Z,97653.52
2019-01-27T10:55:01.578Z,97651.38
2019-01-27T10:57:53.843Z,97640.59
2019-01-27T11:00:37.844Z,97636.54
2019-01-27T11:03:31.024Z,97628.33
2019-01-27T11:06:13.144Z,97635.18
2019-01-27T11:09:06.124Z,97625.05
2019-01-27T11:11:46.657Z,97622.05
2019-01-27T11:14:32.387Z,97617.14
2019-01-27T11:17:31.696Z,97617.73
2019-01-27T11:20:25.744Z,97607.39
2019-01-27T11:23:11.242Z,97608.36
2019-01-27T11:26:06.383Z,97607.26
2019-01-27T11:28:45.881Z,97605.59
2019-01-27T11:31:40.014Z,97597.20
2019-01-27T11:34:29.877Z,97586.63
2019-01-27T11:37:25.101Z,97592.48
2019-01-27T11:40:09.366Z,97591.23
2019-01-27T11:42:53.442Z,97574.67
2019-01-27T11:45:51.245Z,97579.19
2019-01-27T11:48:39.316Z,97569.22
2019-01-27T11:51:15.369Z,97570.25
2019-01-27T11:53:46.088Z,97569.70
2019-01-27T11:56:16.685Z,97568.81
2019-01-27T11:58:46.977Z,97567.36
2019-01-27T12:01:18.017Z,97565.44
2019-01-27T12:03:49.162Z,97554.02
2019-01-27T12:06:20.288Z,97553.30
2019-01-27T12:08:51.746Z,97543.81
2019-01-27T12:11:23.577Z,97547.40
2019-01-27T12:13:53.204Z,97543.70
2019-01-27T12:16:23.669Z,97544.36
2019-01-27T12:18:55.234Z,97542.39
2019-01-27T12:21:27.114Z,97523.66
2019-01-27T12:23:58.145Z,97524.83
2019-01-27T12:26:31.378Z,97522.06
2019-01-27T12:29:03.446Z,97518.13
2019-01-27T12:31:35.893Z,97501.36
2019-01-27T12:34:07.356Z,97497.09
2019-01-27T12:36:37.810Z,97495.80
2019-01-27T12:39:11.527Z,97492.95
2019-01-27T12:41:42.470Z,97496.27
2019-01-27T12:44:14.036Z,97495.61
2019-01-27T12:46:46.454Z,97503.87
2019-01-27T12:49:18.940Z,97499.47
2019-01-27T12:51:49.909Z,97497.14
2019-01-27T12:54:20.298Z,97485.99
2019-01-27T12:56:50.024Z,97480.39
2019-01-27T12:59:21.467Z,97475.55
2019-01-27T13:01:52.975Z,97471.99
2019-01-27T13:04:24.099Z,97465.89
2019-01-27T13:06:54.972Z,97466.73
2019-01-27T13:09:24.529Z,97471.19
2019-01-27T13:11:54.310Z,97474.59
2019-01-27T13:14:24.852Z,97473.45
2019-01-27T13:16:55.061Z,97472.59
2019-01-27T13:19:26.680Z,97470.95
2019-01-27T13:21:56.896Z,97465.93
2019-01-27T13:24:26.868Z,97466.12
2019-01-27T13:26:57.725Z,97464.98
2019-01-27T13:29:28.755Z,97459.88
2019-01-27T13:32:00.589Z,97464.06
2019-01-27T13:34:34.106Z,97452.40
2019-01-27T13:37:07.315Z,97463.87
2019-01-27T13:39:39.062Z,97458.05
2019-01-27T13:42:10.081Z,97458.24
2019-01-27T13:44:40.986Z,97451.14
2019-01-27T13:47:14.547Z,97431.14
2019-01-27T13:49:45.890Z,97434.71
2019-01-27T13:52:16.384Z,97434.41
2019-01-27T13:54:46.886Z,97432.74
2019-01-27T13:57:19.432Z,97433.14
2019-01-27T13:59:51.539Z,97426.65
2019-01-27T14:02:22.974Z,97421.89
2019-01-27T14:04:54.466Z,97420.59
2019-01-27T14:07:26.092Z,97417.08
2019-01-27T14:09:58.145Z,97412.88
2019-01-27T14:12:29.623Z,97418.05
2019-01-27T14:15:00.651Z,97412.54
2019-01-27T14:17:31.417Z,97414.61
2019-01-27T14:20:02.237Z,97414.80
2019-01-27T14:22:33.748Z,97410.34
2019-01-27T14:25:03.325Z,97420.27
2019-01-27T14:27:34.055Z,97417.56
2019-01-27T14:30:07.143Z,97415.33
2019-01-27T14:32:37.796Z,97413.64
2019-01-27T14:35:10.429Z,97408.30
2019-01-27T14:37:42.642Z,97408.30
2019-01-27T14:40:18.360Z,97410.72
2019-01-27T14:42:50.533Z,97404.69
2019-01-27T14:45:24.517Z,97405.93
2019-01-27T14:47:56.147Z,97399.77
2019-01-27T14:50:31.255Z,97396.59
2019-01-27T14:53:02.468Z,97402.80
2019-01-27T14:55:33.518Z,97408.00
2019-01-27T14:58:04.097Z,97409.07
2019-01-27T15:00:37.336Z,97406.11
2019-01-27T15:03:09.559Z,97406.05
2019-01-27T15:05:39.803Z,97406.25
2019-01-27T15:08:10.553Z,97399.70
2019-01-27T15:10:44.282Z,97402.22
2019-01-27T15:13:15.594Z,97405.28
2019-01-27T15:15:46.596Z,97406.31
2019-01-27T15:18:15.727Z,97405.69
2019-01-27T15:20:57.167Z,97403.79
2019-01-27T15:23:28.350Z,97405.23
2019-01-27T15:25:59.157Z,97402.63
2019-01-27T15:28:30.294Z,97419.72
2019-01-27T15:31:03.368Z,97402.77
2019-01-27T15:33:35.009Z,97411.25
2019-01-27T15:36:07.802Z,97414.77
2019-01-27T15:38:38.338Z,97413.14
2019-01-27T15:41:10.565Z,97409.22
2019-01-27T15:43:48.528Z,97403.95
2019-01-27T15:46:15.678Z,97396.03
2019-01-27T15:48:47.459Z,97402.24
2019-01-27T15:51:21.176Z,97408.42
2019-01-27T15:53:53.321Z,97412.73
2019-01-27T15:56:24.515Z,97407.46
2019-01-27T15:58:55.345Z,97418.67
2019-01-27T16:01:26.317Z,97410.52
2019-01-27T16:03:58.934Z,97408.09
2019-01-27T16:06:31.442Z,97415.64
2019-01-27T16:09:04.632Z,97417.75
2019-01-27T16:11:36.358Z,97412.16
2019-01-27T16:14:08.115Z,97412.91
2019-01-27T16:16:41.280Z,97416.27
2019-01-27T16:19:14.751Z,97419.67
2019-01-27T16:21:46.917Z,97420.11
2019-01-27T16:24:23.500Z,97419.55
2019-01-27T16:26:55.178Z,97431.46
2019-01-27T16:29:44.951Z,97420.40
2019-01-27T16:32:20.988Z,97419.52
2019-01-27T16:34:57.607Z,97427.18
2019-01-27T16:37:29.857Z,97428.08
2019-01-27T16:40:02.132Z,97437.08
2019-01-27T16:42:34.592Z,97435.95
2019-01-27T16:45:09.080Z,97439.79
2019-01-27T16:47:39.963Z,97443.62
2019-01-27T16:50:14.461Z,97454.25
2019-01-27T16:52:46.453Z,97447.06
2019-01-27T16:55:19.616Z,97457.88
2019-01-27T16:57:51.213Z,97463.56
2019-01-27T17:00:25.105Z,97469.95
2019-01-27T17:02:55.623Z,97465.15
2019-01-27T17:05:26.238Z,97470.25
2019-01-27T17:07:57.508Z,97470.39
2019-01-27T17:10:30.495Z,97483.89
2019-01-27T17:13:01.991Z,97483.67
2019-01-27T17:15:35.868Z,97483.89
2019-01-27T17:18:09.621Z,97484.09
2019-01-27T17:20:41.066Z,97484.31
2019-01-27T17:23:13.451Z,97486.92
2019-01-27T17:25:44.696Z,97490.84
2019-01-27T17:28:16.493Z,97494.75
2019-01-27T17:30:50.400Z,97487.06
2019-01-27T17:33:24.115Z,97493.47
2019-01-27T17:35:55.766Z,97504.92
2019-01-27T17:38:26.831Z,97506.42
2019-01-27T17:40:58.912Z,97506.81
2019-01-27T17:43:29.933Z,97514.55
2019-01-27T17:46:01.269Z,97522.82
2019-01-27T17:48:35.863Z,97529.25
2019-01-27T17:51:06.649Z,97534.34
2019-01-27T17:53:44.106Z,97531.64
2019-01-27T17:56:15.459Z,97543.03
2019-01-27T17:59:19.969Z,97538.89
2019-01-27T18:02:10.653Z,97548.49
2019-01-27T18:05:08.284Z,97549.80
2019-01-27T18:08:13.128Z,97553.64
2019-01-27T18:11:02.124Z,97569.22
2019-01-27T18:13:42.383Z,97569.06
2019-01-27T18:16:14.787Z,97581.30
2019-01-27T18:18:49.355Z,97583.23
2019-01-27T18:21:25.058Z,97596.54
2019-01-27T18:23:58.124Z,97600.06
2019-01-27T18:26:31.826Z,97604.41
2019-01-27T18:29:04.214Z,97605.64
2019-01-27T18:31:39.265Z,97614.87
2019-01-27T18:34:12.983Z,97627.33
2019-01-27T18:36:46.470Z,97633.55
2019-01-27T18:39:19.665Z,97639.34
2019-01-27T18:41:52.361Z,97649.20
2019-01-27T18:44:26.017Z,97669.04
2019-01-27T18:46:57.876Z,97682.95
2019-01-27T18:49:30.736Z,97698.87
2019-01-27T18:52:02.322Z,97692.68
2019-01-27T18:55:04.894Z,97699.09
2019-01-27T18:57:50.634Z,97701.70
2019-01-27T19:00:44.636Z,97709.81
2019-01-27T19:03:32.902Z,97725.27
2019-01-27T19:06:28.736Z,97738.99
2019-01-27T19:09:29.896Z,97750.53
2019-01-27T19:12:14.951Z,97771.41
2019-01-27T19:15:28.104Z,97776.98
2019-01-27T19:18:26.801Z,97787.81
2019-01-27T19:21:32.963Z,97800.06
2019-01-27T19:24:28.448Z,97817.92
2019-01-27T19:27:23.595Z,97833.26
2019-01-27T19:30:25.107Z,97848.56
2019-01-27T19:33:09.483Z,97863.98
2019-01-27T19:36:12.988Z,97880.27
2019-01-27T19:39:15.326Z,97891.01
2019-01-27T19:42:10.793Z,97905.81
2019-01-27T19:45:13.737Z,97921.59
2019-01-27T19:48:09.530Z,97923.08
2019-01-27T19:51:08.354Z,97931.06
2019-01-27T19:53:52.782Z,97945.35
2019-01-27T19:57:08.860Z,97946.92
2019-01-27T20:00:19.359Z,97959.20
2019-01-27T20:03:04.283Z,97974.68
2019-01-27T20:05:49.515Z,97983.45
2019-01-27T20:08:48.361Z,97990.81
2019-01-27T20:11:43.387Z,98007.81
2019-01-27T20:14:51.287Z,98020.07
2019-01-27T20:17:37.057Z,98027.13
2019-01-27T20:20:22.543Z,98035.72
2019-01-27T20:23:15.156Z,98029.38
2019-01-27T20:26:02.674Z,98031.38
2019-01-27T20:28:46.925Z,98035.27
2019-01-27T20:31:32.307Z,98039.23
2019-01-27T20:34:32.284Z,98044.88
2019-01-27T20:37:29.639Z,98039.38
2019-01-27T20:40:24.102Z,98041.87
2019-01-27T20:43:18.137Z,98052.13
2019-01-27T20:46:15.316Z,98051.21
2019-01-27T20:49:18.763Z,98047.70
2019-01-27T20:52:14.408Z,98050.96
2019-01-27T20:55:20.358Z,98054.25
2019-01-27T20:58:20.283Z,98054.94
2019-01-27T21:01:05.774Z,98055.60
2019-01-27T21:04:04.077Z,98061.48
2019-01-27T21:07:09.799Z,98077.77
2019-01-27T21:10:24.208Z,98083.70
2019-01-27T21:13:23.278Z,98101.75
2019-01-27T21:16:17.448Z,98107.44
2019-01-27T21:18:59.488Z,98113.32
2019-01-27T21:21:35.217Z,98122.57
2019-01-27T21:24:09.465Z,98125.97
2019-01-27T21:26:44.748Z,98126.31
2019-01-27T21:29:18.081Z,98132.11
2019-01-27T21:31:51.915Z,98138.53
2019-01-27T21:34:23.584Z,98136.93
2019-01-27T21:36:56.224Z,98136.77
2019-01-27T21:39:28.967Z,98141.63
2019-01-27T21:42:00.179Z,98144.11
2019-01-27T21:44:32.437Z,98141.55
2019-01-27T21:47:04.722Z,98143.04
2019-01-27T21:49:37.375Z,98140.52
2019-01-27T21:52:08.826Z,98140.83
2019-01-27T21:54:40.402Z,98147.66
2019-01-27T21:57:12.380Z,98145.63
2019-01-27T21:59:43.387Z,98145.79
2019-01-27T22:02:14.873Z,98149.07
2019-01-27T22:04:44.017Z,98146.52
2019-01-27T22:07:17.264Z,98154.67
2019-01-27T22:09:46.830Z,98150.17
2019-01-27T22:12:16.121Z,98152.48
2019-01-27T22:14:44.405Z,98155.58
2019-01-27T22:17:14.224Z,98158.67
2019-01-27T22:19:42.813Z,98156.27
2019-01-27T22:22:10.939Z,98157.06
2019-01-27T22:24:39.105Z,98157.06
2019-01-27T22:27:07.210Z,98164.55
2019-01-27T22:29:35.302Z,98169.55
2019-01-27T22:32:03.479Z,98176.69
2019-01-27T22:34:31.829Z,98166.31
2019-01-27T22:36:59.933Z,98177.98
2019-01-27T22:39:28.083Z,98170.08
2019-01-27T22:41:56.175Z,98174.01
2019-01-27T22:44:24.229Z,98185.75
2019-01-27T22:46:52.335Z,98204.94
2019-01-27T22:49:20.425Z,98192.33
2019-01-27T22:51:48.536Z,98193.97
2019-01-27T22:54:17.618Z,98199.06
2019-01-27T22:56:45.723Z,98201.53
2019-01-27T22:59:14.292Z,98205.60
2019-01-27T23:01:42.662Z,98201.38
2019-01-27T23:04:11.012Z,98205.45
2019-01-27T23:06:39.451Z,98204.45
2019-01-27T23:09:14.735Z,98208.22
2019-01-27T23:11:42.794Z,98208.22
2019-01-27T23:14:10.861Z,98209.70
2019-01-27T23:16:38.941Z,98220.57
2019-01-27T23:19:07.039Z,98216.00
2019-01-27T23:21:35.123Z,98212.30
2019-01-27T23:24:03.340Z,98218.78
2019-01-27T23:26:31.458Z,98227.73
2019-01-27T23:28:59.511Z,98226.25
2019-01-27T23:31:27.680Z,98223.03
2019-01-27T23:33:55.937Z,98228.24
2019-01-27T23:36:24.370Z,98227.13
2019-01-27T23:38:52.439Z,98229.25
2019-01-27T23:41:20.575Z,98235.92
2019-01-27T23:43:51.789Z,98247.77
2019-01-27T23:46:19.874Z,98258.97
2019-01-27T23:48:47.984Z,98258.52
2019-01-27T23:51:16.032Z,98261.98
2019-01-27T23:53:45.452Z,98267.50
2019-01-27T23:56:13.839Z,98277.24
2019-01-27T23:58:41.903Z,98284.27
